sensor_id;sensor_type;location;lat;lon;timestamp;pressure;altitude;pressure_sealevel;temperature;humidity
28911;BME280;16028;42.642;23.310;2023-04-21T00:01:40;93591.91;;;11.79;65.68
28911;BME280;16028;42.642;23.310;2023-04-21T00:04:06;93596.78;;;11.82;65.38
28911;BME280;16028;42.642;23.310;2023-04-21T00:06:34;93591.25;;;11.85;65.86
28911;BME280;16028;42.642;23.310;2023-04-21T00:09:01;93586.38;;;11.90;65.29
28911;BME280;16028;42.642;23.310;2023-04-21T00:11:31;93581.16;;;11.82;65.42
28911;BME280;16028;42.642;23.310;2023-04-21T00:13:57;93584.56;;;11.66;65.85
28911;BME280;16028;42.642;23.310;2023-04-21T00:16:24;93584.41;;;11.67;65.88
28911;BME280;16028;42.642;23.310;2023-04-21T00:18:51;93591.56;;;11.65;65.90
28911;BME280;16028;42.642;23.310;2023-04-21T00:21:18;93593.53;;;11.63;65.68
28911;BME280;16028;42.642;23.310;2023-04-21T00:23:44;93591.59;;;11.57;65.75
28911;BME280;16028;42.642;23.310;2023-04-21T00:26:14;93591.59;;;11.57;65.90
28911;BME280;16028;42.642;23.310;2023-04-21T00:28:42;93583.28;;;11.54;64.84
28911;BME280;16028;42.642;23.310;2023-04-21T00:31:09;93585.72;;;11.39;65.73
28911;BME280;16028;42.642;23.310;2023-04-21T00:33:35;93585.41;;;11.34;65.37
28911;BME280;16028;42.642;23.310;2023-04-21T00:36:03;93600.03;;;11.43;65.63
28911;BME280;16028;42.642;23.310;2023-04-21T00:38:30;93591.41;;;11.51;65.07
28911;BME280;16028;42.642;23.310;2023-04-21T00:40:56;93604.94;;;11.38;65.90
28911;BME280;16028;42.642;23.310;2023-04-21T00:43:23;93594.19;;;11.25;65.99
28911;BME280;16028;42.642;23.310;2023-04-21T00:45:52;93587.00;;;11.27;66.16
28911;BME280;16028;42.642;23.310;2023-04-21T00:48:18;93593.38;;;11.41;65.53
28911;BME280;16028;42.642;23.310;2023-04-21T00:50:45;93593.53;;;11.39;65.40
28911;BME280;16028;42.642;23.310;2023-04-21T00:53:13;93593.53;;;11.31;65.36
28911;BME280;16028;42.642;23.310;2023-04-21T00:55:40;93581.47;;;11.30;65.71
28911;BME280;16028;42.642;23.310;2023-04-21T00:58:07;93577.25;;;11.37;65.30
28911;BME280;16028;42.642;23.310;2023-04-21T01:00:33;93585.88;;;11.30;65.97
28911;BME280;16028;42.642;23.310;2023-04-21T01:03:03;93582.31;;;11.23;66.38
28911;BME280;16028;42.642;23.310;2023-04-21T01:05:31;93585.72;;;11.15;67.14
28911;BME280;16028;42.642;23.310;2023-04-21T01:07:58;93584.41;;;11.27;66.19
28911;BME280;16028;42.642;23.310;2023-04-21T01:10:26;93589.13;;;11.32;65.94
28911;BME280;16028;42.642;23.310;2023-04-21T01:12:53;93586.03;;;11.36;66.20
28911;BME280;16028;42.642;23.310;2023-04-21T01:15:19;93581.81;;;11.27;66.47
28911;BME280;16028;42.642;23.310;2023-04-21T01:17:46;93589.47;;;11.37;66.83
28911;BME280;16028;42.642;23.310;2023-04-21T01:20:15;93581.47;;;11.30;66.72
28911;BME280;16028;42.642;23.310;2023-04-21T01:22:43;93577.91;;;11.15;67.45
28911;BME280;16028;42.642;23.310;2023-04-21T01:25:11;93580.81;;;11.12;67.40
28911;BME280;16028;42.642;23.310;2023-04-21T01:27:38;93581.00;;;11.19;67.97
28911;BME280;16028;42.642;23.310;2023-04-21T01:30:05;93582.63;;;11.28;67.14
28911;BME280;16028;42.642;23.310;2023-04-21T01:32:33;93575.28;;;11.23;67.23
28911;BME280;16028;42.642;23.310;2023-04-21T01:34:59;93571.56;;;11.09;67.63
28911;BME280;16028;42.642;23.310;2023-04-21T01:37:28;93571.69;;;11.08;67.58
28911;BME280;16028;42.642;23.310;2023-04-21T01:39:58;93572.69;;;11.15;67.08
28911;BME280;16028;42.642;23.310;2023-04-21T01:42:27;93568.44;;;11.14;67.48
28911;BME280;16028;42.642;23.310;2023-04-21T01:44:55;93569.78;;;11.10;67.35
28911;BME280;16028;42.642;23.310;2023-04-21T01:47:22;93567.34;;;11.17;67.50
28911;BME280;16028;42.642;23.310;2023-04-21T01:49:50;93568.31;;;11.32;66.76
28911;BME280;16028;42.642;23.310;2023-04-21T01:52:17;93565.53;;;11.33;66.39
28911;BME280;16028;42.642;23.310;2023-04-21T01:54:44;93564.75;;;11.17;66.74
28911;BME280;16028;42.642;23.310;2023-04-21T01:57:12;93569.94;;;11.17;66.67
28911;BME280;16028;42.642;23.310;2023-04-21T01:59:39;93564.88;;;11.15;66.57
28911;BME280;16028;42.642;23.310;2023-04-21T02:02:05;93562.28;;;11.15;66.34
28911;BME280;16028;42.642;23.310;2023-04-21T02:04:32;93564.22;;;11.05;67.16
28911;BME280;16028;42.642;23.310;2023-04-21T02:06:59;93556.75;;;11.02;67.10
28911;BME280;16028;42.642;23.310;2023-04-21T02:09:26;93559.19;;;11.11;67.08
28911;BME280;16028;42.642;23.310;2023-04-21T02:11:54;93571.56;;;11.18;66.94
28911;BME280;16028;42.642;23.310;2023-04-21T02:14:23;93567.66;;;11.22;67.18
28911;BME280;16028;42.642;23.310;2023-04-21T02:16:49;93574.00;;;11.19;67.08
28911;BME280;16028;42.642;23.310;2023-04-21T02:19:16;93560.81;;;11.21;67.57
28911;BME280;16028;42.642;23.310;2023-04-21T02:21:43;93558.38;;;11.19;67.19
28911;BME280;16028;42.642;23.310;2023-04-21T02:24:09;93563.91;;;11.16;68.04
28911;BME280;16028;42.642;23.310;2023-04-21T02:26:36;93558.84;;;10.98;68.57
28911;BME280;16028;42.642;23.310;2023-04-21T02:29:03;93558.19;;;10.96;69.07
28911;BME280;16028;42.642;23.310;2023-04-21T02:31:31;93566.81;;;11.05;69.48
28911;BME280;16028;42.642;23.310;2023-04-21T02:33:58;93570.41;;;11.12;69.27
28911;BME280;16028;42.642;23.310;2023-04-21T02:36:24;93560.66;;;11.14;69.33
28911;BME280;16028;42.642;23.310;2023-04-21T02:38:51;93555.78;;;11.03;69.93
28911;BME280;16028;42.642;23.310;2023-04-21T02:41:18;93556.25;;;11.06;69.95
28911;BME280;16028;42.642;23.310;2023-04-21T02:43:45;93567.50;;;11.07;69.91
28911;BME280;16028;42.642;23.310;2023-04-21T02:46:11;93565.84;;;10.90;70.15
28911;BME280;16028;42.642;23.310;2023-04-21T02:48:40;93566.81;;;10.89;70.89
28911;BME280;16028;42.642;23.310;2023-04-21T02:51:10;93565.84;;;11.06;70.80
28911;BME280;16028;42.642;23.310;2023-04-21T02:53:37;93567.50;;;11.15;69.78
28911;BME280;16028;42.642;23.310;2023-04-21T02:56:05;93566.34;;;11.18;69.96
28911;BME280;16028;42.642;23.310;2023-04-21T02:58:33;93569.13;;;11.16;69.98
28911;BME280;16028;42.642;23.310;2023-04-21T03:01:01;93564.88;;;11.23;69.63
28911;BME280;16028;42.642;23.310;2023-04-21T03:03:28;93572.03;;;11.37;69.29
28911;BME280;16028;42.642;23.310;2023-04-21T03:06:00;93566.19;;;11.35;69.62
28911;BME280;16028;42.642;23.310;2023-04-21T03:08:27;93568.31;;;11.32;69.42
28911;BME280;16028;42.642;23.310;2023-04-21T03:10:53;93572.69;;;11.39;69.35
28911;BME280;16028;42.642;23.310;2023-04-21T03:13:20;93573.53;;;11.48;68.61
28911;BME280;16028;42.642;23.310;2023-04-21T03:15:47;93560.66;;;11.38;68.95
28911;BME280;16028;42.642;23.310;2023-04-21T03:18:14;93576.59;;;11.27;69.17
28911;BME280;16028;42.642;23.310;2023-04-21T03:20:41;93565.38;;;11.35;68.90
28911;BME280;16028;42.642;23.310;2023-04-21T03:23:09;93573.34;;;11.33;69.11
28911;BME280;16028;42.642;23.310;2023-04-21T03:25:37;93570.75;;;11.33;69.30
28911;BME280;16028;42.642;23.310;2023-04-21T03:28:04;93578.06;;;11.46;68.90
28911;BME280;16028;42.642;23.310;2023-04-21T03:30:31;93573.50;;;11.56;68.36
28911;BME280;16028;42.642;23.310;2023-04-21T03:32:58;93573.34;;;11.41;67.75
28911;BME280;16028;42.642;23.310;2023-04-21T03:35:25;93568.16;;;11.25;68.27
28911;BME280;16028;42.642;23.310;2023-04-21T03:37:52;93570.72;;;11.01;69.13
28911;BME280;16028;42.642;23.310;2023-04-21T03:40:20;93570.72;;;11.01;69.52
28911;BME280;16028;42.642;23.310;2023-04-21T03:42:47;93571.06;;;11.06;69.40
28911;BME280;16028;42.642;23.310;2023-04-21T03:45:14;93585.38;;;11.02;69.30
28911;BME280;16028;42.642;23.310;2023-04-21T03:47:43;93576.75;;;11.01;69.77
28911;BME280;16028;42.642;23.310;2023-04-21T03:50:09;93566.84;;;10.97;70.31
28911;BME280;16028;42.642;23.310;2023-04-21T03:52:36;93578.06;;;11.05;69.83
28911;BME280;16028;42.642;23.310;2023-04-21T03:55:03;93578.53;;;11.01;69.07
28911;BME280;16028;42.642;23.310;2023-04-21T03:57:34;93590.53;;;10.86;69.99
28911;BME280;16028;42.642;23.310;2023-04-21T04:00:01;93590.84;;;10.75;70.45
28911;BME280;16028;42.642;23.310;2023-04-21T04:02:29;93589.91;;;10.84;70.80
28911;BME280;16028;42.642;23.310;2023-04-21T04:04:56;93596.09;;;10.99;69.92
28911;BME280;16028;42.642;23.310;2023-04-21T04:07:23;93596.88;;;10.91;69.95
28911;BME280;16028;42.642;23.310;2023-04-21T04:09:50;93593.66;;;10.97;69.98
28911;BME280;16028;42.642;23.310;2023-04-21T04:12:17;93599.69;;;11.14;69.70
28911;BME280;16028;42.642;23.310;2023-04-21T04:14:45;93595.81;;;11.26;69.09
28911;BME280;16028;42.642;23.310;2023-04-21T04:17:12;93599.06;;;11.36;68.69
28911;BME280;16028;42.642;23.310;2023-04-21T04:19:38;93611.41;;;11.42;68.46
28911;BME280;16028;42.642;23.310;2023-04-21T04:22:05;93610.47;;;11.51;68.37
28911;BME280;16028;42.642;23.310;2023-04-21T04:24:32;93604.28;;;11.60;68.18
28911;BME280;16028;42.642;23.310;2023-04-21T04:27:00;93617.78;;;11.64;67.87
28911;BME280;16028;42.642;23.310;2023-04-21T04:29:27;93622.50;;;11.68;67.55
28911;BME280;16028;42.642;23.310;2023-04-21T04:31:55;93616.78;;;11.65;67.65
28911;BME280;16028;42.642;23.310;2023-04-21T04:34:25;93624.59;;;11.65;68.17
28911;BME280;16028;42.642;23.310;2023-04-21T04:36:52;93629.03;;;11.64;67.94
28911;BME280;16028;42.642;23.310;2023-04-21T04:39:19;93627.25;;;11.73;68.25
28911;BME280;16028;42.642;23.310;2023-04-21T04:41:46;93630.19;;;11.78;67.27
28911;BME280;16028;42.642;23.310;2023-04-21T04:44:14;93629.34;;;11.78;68.27
28911;BME280;16028;42.642;23.310;2023-04-21T04:46:42;93625.16;;;11.77;67.83
28911;BME280;16028;42.642;23.310;2023-04-21T04:49:11;93638.13;;;11.68;68.75
28911;BME280;16028;42.642;23.310;2023-04-21T04:51:38;93642.72;;;11.75;68.53
28911;BME280;16028;42.642;23.310;2023-04-21T04:54:04;93637.84;;;11.80;68.83
28911;BME280;16028;42.642;23.310;2023-04-21T04:56:31;93633.44;;;11.72;68.69
28911;BME280;16028;42.642;23.310;2023-04-21T04:58:58;93636.22;;;11.71;68.99
28911;BME280;16028;42.642;23.310;2023-04-21T05:01:25;93632.97;;;11.77;69.13
28911;BME280;16028;42.642;23.310;2023-04-21T05:03:55;93628.22;;;11.72;69.18
28911;BME280;16028;42.642;23.310;2023-04-21T05:06:23;93638.81;;;11.71;69.29
28911;BME280;16028;42.642;23.310;2023-04-21T05:08:50;93636.53;;;11.67;69.30
28911;BME280;16028;42.642;23.310;2023-04-21T05:11:17;93632.28;;;11.66;69.68
28911;BME280;16028;42.642;23.310;2023-04-21T05:13:43;93638.66;;;11.72;69.44
28911;BME280;16028;42.642;23.310;2023-04-21T05:16:10;93633.59;;;11.79;69.67
28911;BME280;16028;42.642;23.310;2023-04-21T05:18:37;93639.75;;;11.69;69.52
28911;BME280;16028;42.642;23.310;2023-04-21T05:21:04;93640.41;;;11.63;69.99
28911;BME280;16028;42.642;23.310;2023-04-21T05:23:32;93641.38;;;11.62;70.31
28911;BME280;16028;42.642;23.310;2023-04-21T05:26:00;93644.00;;;11.62;71.23
28911;BME280;16028;42.642;23.310;2023-04-21T05:28:27;93637.84;;;11.72;71.61
28911;BME280;16028;42.642;23.310;2023-04-21T05:30:54;93636.53;;;11.84;70.37
28911;BME280;16028;42.642;23.310;2023-04-21T05:33:21;93639.63;;;11.95;69.98
28911;BME280;16028;42.642;23.310;2023-04-21T05:35:47;93641.41;;;11.95;70.43
28911;BME280;16028;42.642;23.310;2023-04-21T05:38:14;93638.81;;;12.03;69.79
28911;BME280;16028;42.642;23.310;2023-04-21T05:40:42;93638.13;;;12.09;69.15
28911;BME280;16028;42.642;23.310;2023-04-21T05:43:09;93639.75;;;12.10;69.58
28911;BME280;16028;42.642;23.310;2023-04-21T05:45:38;93640.06;;;12.15;69.59
28911;BME280;16028;42.642;23.310;2023-04-21T05:48:05;93636.13;;;12.19;69.75
28911;BME280;16028;42.642;23.310;2023-04-21T05:50:32;93633.69;;;12.26;69.67
28911;BME280;16028;42.642;23.310;2023-04-21T05:53:00;93642.31;;;12.34;69.31
28911;BME280;16028;42.642;23.310;2023-04-21T05:55:27;93637.41;;;12.39;68.94
28911;BME280;16028;42.642;23.310;2023-04-21T05:57:55;93645.59;;;12.28;69.48
28911;BME280;16028;42.642;23.310;2023-04-21T06:00:22;93633.19;;;12.30;69.69
28911;BME280;16028;42.642;23.310;2023-04-21T06:02:49;93639.41;;;12.21;69.52
28911;BME280;16028;42.642;23.310;2023-04-21T06:05:16;93631.91;;;12.18;70.29
28911;BME280;16028;42.642;23.310;2023-04-21T06:07:43;93621.97;;;12.22;70.78
28911;BME280;16028;42.642;23.310;2023-04-21T06:10:11;93629.75;;;12.30;69.94
28911;BME280;16028;42.642;23.310;2023-04-21T06:12:38;93623.41;;;12.32;69.97
28911;BME280;16028;42.642;23.310;2023-04-21T06:15:07;93628.25;;;12.43;70.95
28911;BME280;16028;42.642;23.310;2023-04-21T06:17:34;93638.13;;;12.64;69.64
28911;BME280;16028;42.642;23.310;2023-04-21T06:20:01;93634.34;;;12.74;69.28
28911;BME280;16028;42.642;23.310;2023-04-21T06:22:28;93629.34;;;12.96;68.47
28911;BME280;16028;42.642;23.310;2023-04-21T06:24:55;93640.56;;;13.04;67.89
28911;BME280;16028;42.642;23.310;2023-04-21T06:27:21;93637.34;;;12.94;67.40
28911;BME280;16028;42.642;23.310;2023-04-21T06:29:53;93629.34;;;12.96;68.08
28911;BME280;16028;42.642;23.310;2023-04-21T06:32:21;93631.25;;;13.10;67.46
28911;BME280;16028;42.642;23.310;2023-04-21T06:34:48;93634.38;;;13.36;66.22
28911;BME280;16028;42.642;23.310;2023-04-21T06:37:14;93628.00;;;13.31;66.25
28911;BME280;16028;42.642;23.310;2023-04-21T06:39:41;93626.34;;;13.38;65.66
28911;BME280;16028;42.642;23.310;2023-04-21T06:42:08;93616.91;;;13.37;66.03
28911;BME280;16028;42.642;23.310;2023-04-21T06:44:34;93622.69;;;13.47;65.69
28911;BME280;16028;42.642;23.310;2023-04-21T06:47:02;93619.31;;;13.38;65.91
28911;BME280;16028;42.642;23.310;2023-04-21T06:49:30;93621.78;;;13.40;65.61
28911;BME280;16028;42.642;23.310;2023-04-21T06:51:58;93613.75;;;13.41;65.25
28911;BME280;16028;42.642;23.310;2023-04-21T06:54:25;93623.25;;;13.34;65.65
28911;BME280;16028;42.642;23.310;2023-04-21T06:56:52;93620.03;;;13.32;64.82
28911;BME280;16028;42.642;23.310;2023-04-21T06:59:18;93621.19;;;13.30;65.46
28911;BME280;16028;42.642;23.310;2023-04-21T07:01:45;93613.00;;;13.33;64.59
28911;BME280;16028;42.642;23.310;2023-04-21T07:04:13;93614.44;;;13.35;66.12
28911;BME280;16028;42.642;23.310;2023-04-21T07:06:41;93620.97;;;13.39;65.84
28911;BME280;16028;42.642;23.310;2023-04-21T07:09:09;93615.03;;;13.45;64.78
28911;BME280;16028;42.642;23.310;2023-04-21T07:11:35;93610.09;;;13.50;64.84
28911;BME280;16028;42.642;23.310;2023-04-21T07:14:05;93620.84;;;13.55;64.36
28911;BME280;16028;42.642;23.310;2023-04-21T07:16:32;93621.19;;;13.52;64.94
28911;BME280;16028;42.642;23.310;2023-04-21T07:18:59;93613.81;;;13.56;65.07
28911;BME280;16028;42.642;23.310;2023-04-21T07:21:26;93627.13;;;13.46;65.33
28911;BME280;16028;42.642;23.310;2023-04-21T07:23:55;93617.56;;;13.53;63.84
28911;BME280;16028;42.642;23.310;2023-04-21T07:26:22;93619.22;;;13.54;66.65
28911;BME280;16028;42.642;23.310;2023-04-21T07:28:49;93619.91;;;13.71;64.36
28911;BME280;16028;42.642;23.310;2023-04-21T07:31:17;93619.47;;;13.82;65.51
28911;BME280;16028;42.642;23.310;2023-04-21T07:33:43;93619.50;;;13.97;62.93
28911;BME280;16028;42.642;23.310;2023-04-21T07:36:10;93602.56;;;14.07;63.42
28911;BME280;16028;42.642;23.310;2023-04-21T07:38:37;93609.88;;;14.26;62.55
28911;BME280;16028;42.642;23.310;2023-04-21T07:41:09;93606.19;;;14.21;61.91
28911;BME280;16028;42.642;23.310;2023-04-21T07:43:36;93607.47;;;14.25;62.59
28911;BME280;16028;42.642;23.310;2023-04-21T07:46:04;93604.28;;;14.29;62.67
28911;BME280;16028;42.642;23.310;2023-04-21T07:48:30;93605.31;;;14.28;61.82
28911;BME280;16028;42.642;23.310;2023-04-21T07:50:57;93614.75;;;14.29;63.10
28911;BME280;16028;42.642;23.310;2023-04-21T07:53:24;93610.31;;;14.38;61.87
28911;BME280;16028;42.642;23.310;2023-04-21T07:55:51;93615.53;;;14.38;61.93
28911;BME280;16028;42.642;23.310;2023-04-21T07:58:20;93613.47;;;14.48;60.04
28911;BME280;16028;42.642;23.310;2023-04-21T08:00:47;93617.34;;;14.38;60.34
28911;BME280;16028;42.642;23.310;2023-04-21T08:03:13;93624.34;;;14.22;61.54
28911;BME280;16028;42.642;23.310;2023-04-21T08:05:40;93630.44;;;14.15;62.08
28911;BME280;16028;42.642;23.310;2023-04-21T08:08:07;93624.97;;;14.24;61.76
28911;BME280;16028;42.642;23.310;2023-04-21T08:10:34;93618.16;;;14.38;61.45
28911;BME280;16028;42.642;23.310;2023-04-21T08:13:01;93620.31;;;14.49;60.74
28911;BME280;16028;42.642;23.310;2023-04-21T08:15:32;93619.56;;;14.55;60.65
28911;BME280;16028;42.642;23.310;2023-04-21T08:17:58;93603.88;;;14.55;60.67
28911;BME280;16028;42.642;23.310;2023-04-21T08:20:25;93612.56;;;14.70;60.33
28911;BME280;16028;42.642;23.310;2023-04-21T08:22:52;93609.94;;;14.70;60.42
28911;BME280;16028;42.642;23.310;2023-04-21T08:25:19;93607.72;;;14.89;59.77
28911;BME280;16028;42.642;23.310;2023-04-21T08:27:46;93605.28;;;15.02;58.18
28911;BME280;16028;42.642;23.310;2023-04-21T08:30:13;93601.88;;;14.87;59.36
28911;BME280;16028;42.642;23.310;2023-04-21T08:32:41;93603.16;;;14.61;60.34
28911;BME280;16028;42.642;23.310;2023-04-21T08:35:09;93607.03;;;14.65;61.88
28911;BME280;16028;42.642;23.310;2023-04-21T08:37:36;93606.94;;;14.73;60.69
28911;BME280;16028;42.642;23.310;2023-04-21T08:40:04;93614.06;;;14.79;60.71
28911;BME280;16028;42.642;23.310;2023-04-21T08:42:32;93598.44;;;14.86;59.90
28911;BME280;16028;42.642;23.310;2023-04-21T08:44:59;93602.94;;;14.77;59.96
28911;BME280;16028;42.642;23.310;2023-04-21T08:47:27;93602.06;;;14.70;58.50
28911;BME280;16028;42.642;23.310;2023-04-21T08:49:56;93605.84;;;14.68;60.42
28911;BME280;16028;42.642;23.310;2023-04-21T08:52:24;93605.94;;;14.74;60.09
28911;BME280;16028;42.642;23.310;2023-04-21T08:54:51;93602.50;;;14.89;59.09
28911;BME280;16028;42.642;23.310;2023-04-21T08:57:19;93600.03;;;14.87;59.27
28911;BME280;16028;42.642;23.310;2023-04-21T08:59:46;93602.41;;;14.82;59.83
28911;BME280;16028;42.642;23.310;2023-04-21T09:02:14;93597.69;;;14.92;59.53
28911;BME280;16028;42.642;23.310;2023-04-21T09:04:43;93597.13;;;14.97;59.42
28911;BME280;16028;42.642;23.310;2023-04-21T09:07:29;93597.66;;;15.07;57.96
28911;BME280;16028;42.642;23.310;2023-04-21T09:09:57;93599.97;;;15.16;57.20
28911;BME280;16028;42.642;23.310;2023-04-21T09:12:24;93590.69;;;15.14;56.83
28911;BME280;16028;42.642;23.310;2023-04-21T09:14:52;93597.25;;;15.24;56.02
28911;BME280;16028;42.642;23.310;2023-04-21T09:17:20;93579.72;;;15.25;57.17
28911;BME280;16028;42.642;23.310;2023-04-21T09:19:47;93577.97;;;15.32;54.74
28911;BME280;16028;42.642;23.310;2023-04-21T09:22:16;93570.00;;;15.40;57.01
28911;BME280;16028;42.642;23.310;2023-04-21T09:24:47;93571.69;;;15.48;57.01
28911;BME280;16028;42.642;23.310;2023-04-21T09:27:14;93574.66;;;15.45;57.41
28911;BME280;16028;42.642;23.310;2023-04-21T09:29:45;93566.84;;;15.66;57.52
28911;BME280;16028;42.642;23.310;2023-04-21T09:32:16;93568.59;;;15.86;56.60
28911;BME280;16028;42.642;23.310;2023-04-21T09:34:43;93563.41;;;15.93;56.68
28911;BME280;16028;42.642;23.310;2023-04-21T09:37:10;93570.03;;;16.17;53.04
28911;BME280;16028;42.642;23.310;2023-04-21T09:39:43;93558.31;;;16.13;53.81
28911;BME280;16028;42.642;23.310;2023-04-21T09:42:11;93567.22;;;16.18;54.13
28911;BME280;16028;42.642;23.310;2023-04-21T09:44:38;93559.00;;;16.28;53.57
28911;BME280;16028;42.642;23.310;2023-04-21T09:47:09;93555.81;;;16.32;53.59
28911;BME280;16028;42.642;23.310;2023-04-21T09:49:37;93559.94;;;16.48;53.43
28911;BME280;16028;42.642;23.310;2023-04-21T09:52:09;93566.81;;;16.49;51.90
28911;BME280;16028;42.642;23.310;2023-04-21T09:54:44;93558.53;;;16.52;53.28
28911;BME280;16028;42.642;23.310;2023-04-21T09:57:19;93552.16;;;16.61;53.23
28911;BME280;16028;42.642;23.310;2023-04-21T09:59:50;93554.84;;;16.74;52.85
28911;BME280;16028;42.642;23.310;2023-04-21T10:02:23;93554.41;;;16.71;53.43
28911;BME280;16028;42.642;23.310;2023-04-21T10:04:50;93548.19;;;16.85;50.67
28911;BME280;16028;42.642;23.310;2023-04-21T10:07:18;93554.28;;;16.92;51.40
28911;BME280;16028;42.642;23.310;2023-04-21T10:09:48;93545.34;;;16.80;50.39
28911;BME280;16028;42.642;23.310;2023-04-21T10:12:17;93549.56;;;16.68;51.58
28911;BME280;16028;42.642;23.310;2023-04-21T10:14:44;93540.28;;;16.72;49.97
28911;BME280;16028;42.642;23.310;2023-04-21T10:17:11;93530.75;;;16.64;51.77
28911;BME280;16028;42.642;23.310;2023-04-21T10:19:49;93536.22;;;16.69;51.28
28911;BME280;16028;42.642;23.310;2023-04-21T10:22:26;93538.69;;;16.77;49.06
28911;BME280;16028;42.642;23.310;2023-04-21T10:24:56;93548.41;;;16.83;49.42
28911;BME280;16028;42.642;23.310;2023-04-21T10:27:33;93544.19;;;16.96;47.77
28911;BME280;16028;42.642;23.310;2023-04-21T10:30:00;93532.44;;;16.91;49.17
28911;BME280;16028;42.642;23.310;2023-04-21T10:32:38;93543.53;;;16.80;48.50
28911;BME280;16028;42.642;23.310;2023-04-21T10:35:09;93540.25;;;16.65;49.45
28911;BME280;16028;42.642;23.310;2023-04-21T10:37:36;93534.34;;;16.57;51.50
28911;BME280;16028;42.642;23.310;2023-04-21T10:40:06;93533.72;;;16.55;50.77
28911;BME280;16028;42.642;23.310;2023-04-21T10:42:35;93540.56;;;16.49;51.32
28911;BME280;16028;42.642;23.310;2023-04-21T10:45:07;93550.22;;;16.49;51.76
28911;BME280;16028;42.642;23.310;2023-04-21T10:47:44;93541.72;;;16.47;53.91
28911;BME280;16028;42.642;23.310;2023-04-21T10:50:23;93546.91;;;16.61;55.24
28911;BME280;16028;42.642;23.310;2023-04-21T10:52:53;93551.53;;;16.66;52.71
28911;BME280;16028;42.642;23.310;2023-04-21T10:55:24;93550.16;;;16.70;53.06
28911;BME280;16028;42.642;23.310;2023-04-21T10:57:51;93553.34;;;16.59;55.14
28911;BME280;16028;42.642;23.310;2023-04-21T11:00:20;93547.72;;;16.62;52.00
28911;BME280;16028;42.642;23.310;2023-04-21T11:02:58;93552.81;;;16.42;51.15
28911;BME280;16028;42.642;23.310;2023-04-21T11:05:30;93550.56;;;16.32;52.45
28911;BME280;16028;42.642;23.310;2023-04-21T11:08:06;93551.94;;;16.28;52.58
28911;BME280;16028;42.642;23.310;2023-04-21T11:10:52;93546.28;;;16.31;51.15
28911;BME280;16028;42.642;23.310;2023-04-21T11:13:21;93545.91;;;16.34;52.48
28911;BME280;16028;42.642;23.310;2023-04-21T11:15:59;93536.72;;;16.52;50.75
28911;BME280;16028;42.642;23.310;2023-04-21T11:18:35;93540.63;;;16.56;49.33
28911;BME280;16028;42.642;23.310;2023-04-21T11:21:09;93533.38;;;16.64;49.61
28911;BME280;16028;42.642;23.310;2023-04-21T11:23:38;93521.50;;;16.75;54.04
28911;BME280;16028;42.642;23.310;2023-04-21T11:26:07;93531.22;;;16.81;50.12
28911;BME280;16028;42.642;23.310;2023-04-21T11:28:34;93528.19;;;16.77;50.50
28911;BME280;16028;42.642;23.310;2023-04-21T11:31:01;93527.81;;;16.87;49.08
28911;BME280;16028;42.642;23.310;2023-04-21T11:33:29;93534.44;;;16.83;50.67
28911;BME280;16028;42.642;23.310;2023-04-21T11:35:56;93536.72;;;16.99;47.60
28911;BME280;16028;42.642;23.310;2023-04-21T11:38:24;93535.31;;;16.97;47.22
28911;BME280;16028;42.642;23.310;2023-04-21T11:40:50;93538.91;;;16.89;47.31
28911;BME280;16028;42.642;23.310;2023-04-21T11:43:21;93541.34;;;16.84;47.35
28911;BME280;16028;42.642;23.310;2023-04-21T11:45:48;93540.28;;;16.78;49.04
28911;BME280;16028;42.642;23.310;2023-04-21T11:48:16;93536.47;;;16.81;49.24
28911;BME280;16028;42.642;23.310;2023-04-21T11:50:46;93537.03;;;16.76;48.41
28911;BME280;16028;42.642;23.310;2023-04-21T11:53:13;93537.25;;;16.75;48.27
28911;BME280;16028;42.642;23.310;2023-04-21T11:55:41;93535.81;;;16.72;48.29
28911;BME280;16028;42.642;23.310;2023-04-21T11:58:09;93540.25;;;16.65;47.88
28911;BME280;16028;42.642;23.310;2023-04-21T12:00:37;93538.19;;;16.61;48.58
28911;BME280;16028;42.642;23.310;2023-04-21T12:03:07;93538.63;;;16.64;47.78
28911;BME280;16028;42.642;23.310;2023-04-21T12:05:35;93547.53;;;16.70;46.53
28911;BME280;16028;42.642;23.310;2023-04-21T12:08:02;93551.34;;;16.67;47.83
28911;BME280;16028;42.642;23.310;2023-04-21T12:10:30;93546.94;;;16.68;48.27
28911;BME280;16028;42.642;23.310;2023-04-21T12:12:57;93548.91;;;16.66;48.33
28911;BME280;16028;42.642;23.310;2023-04-21T12:15:24;93546.31;;;16.72;46.71
28911;BME280;16028;42.642;23.310;2023-04-21T12:17:53;93547.09;;;16.66;44.87
28911;BME280;16028;42.642;23.310;2023-04-21T12:20:21;93545.91;;;16.62;45.73
28911;BME280;16028;42.642;23.310;2023-04-21T12:22:48;93537.59;;;16.59;46.36
28911;BME280;16028;42.642;23.310;2023-04-21T12:25:15;93541.22;;;16.58;47.75
28911;BME280;16028;42.642;23.310;2023-04-21T12:27:47;93542.88;;;16.65;46.15
28911;BME280;16028;42.642;23.310;2023-04-21T12:30:14;93536.19;;;16.63;47.98
28911;BME280;16028;42.642;23.310;2023-04-21T12:32:41;93547.75;;;16.68;46.86
28911;BME280;16028;42.642;23.310;2023-04-21T12:35:09;93545.56;;;16.85;48.52
28911;BME280;16028;42.642;23.310;2023-04-21T12:37:36;93535.28;;;16.90;46.89
28911;BME280;16028;42.642;23.310;2023-04-21T12:40:04;93536.72;;;16.99;47.28
28911;BME280;16028;42.642;23.310;2023-04-21T12:42:31;93538.75;;;16.97;46.52
28911;BME280;16028;42.642;23.310;2023-04-21T12:44:58;93539.94;;;17.01;45.20
28911;BME280;16028;42.642;23.310;2023-04-21T12:47:25;93538.56;;;17.05;46.43
28911;BME280;16028;42.642;23.310;2023-04-21T12:49:52;93535.72;;;17.00;46.84
28911;BME280;16028;42.642;23.310;2023-04-21T12:52:20;93534.94;;;17.06;46.09
28911;BME280;16028;42.642;23.310;2023-04-21T12:54:47;93534.91;;;17.00;44.37